Time;durP1;ratioP1;P1;durP2;ratioP2;P2;SDS_P1;SDS_P2;PMS_P1;PMS_P2;Temp;Humidity;BMP_temperature;BMP_pressure;BME280_temperature;BME280_humidity;BME280_pressure;Samples;Min_cycle;Max_cycle;Signal;HPM_P1;HPM_P2
2023/03/08 00:01:15;;;;;;;7.17;4.13;;;;;;;-1.41;100.00;98973.81;5041553;28;20119;-80
2023/03/08 00:03:42;;;;;;;10.17;4.33;;;;;;;-1.35;100.00;98980.69;5026058;28;20064;-81
2023/03/08 00:06:16;;;;;;;6.50;3.80;;;;;;;-1.37;100.00;98990.22;5045610;28;20041;-81
2023/03/08 00:08:44;;;;;;;;;;;;;;;-1.40;100.00;98985.91;5031296;28;20044;-81
2023/03/08 00:11:16;;;;;;;10.83;3.90;;;;;;;-1.46;100.00;98997.09;5060344;28;20385;-80
2023/03/08 00:13:43;;;;;;;5.33;3.60;;;;;;;-1.53;100.00;99000.53;5026815;28;20043;-80
2023/03/08 00:16:12;;;;;;;7.60;3.40;;;;;;;-1.52;100.00;99004.84;5062323;28;20037;-81
2023/03/08 00:18:42;;;;;;;7.60;4.17;;;;;;;-1.51;100.00;99006.63;5041042;28;20064;-81
2023/03/08 00:21:14;;;;;;;11.67;4.53;;;;;;;-1.46;100.00;99009.19;5043793;28;20456;-81
2023/03/08 00:23:43;;;;;;;8.38;3.67;;;;;;;-1.41;100.00;99002.31;5050620;28;20068;-81
2023/03/08 00:26:13;;;;;;;9.23;4.07;;;;;;;-1.42;100.00;99008.34;5054749;28;20464;-81
2023/03/08 00:28:45;;;;;;;7.40;3.33;;;;;;;-1.45;100.00;99008.31;5042611;28;20045;-81
2023/03/08 00:31:12;;;;;;;7.13;3.80;;;;;;;-1.41;100.00;99015.25;5028416;28;20095;-82
2023/03/08 00:33:39;;;;;;;9.07;4.63;;;;;;;-1.40;100.00;99016.97;5041269;28;20041;-81
2023/03/08 00:36:10;;;;;;;6.57;3.23;;;;;;;-1.40;100.00;99016.13;5058975;28;20037;-81
2023/03/08 00:38:40;;;;;;;7.47;4.50;;;;;;;-1.54;100.00;99016.09;5041262;28;20056;-82
2023/03/08 00:41:07;;;;;;;6.37;3.60;;;;;;;-1.44;100.00;99017.81;5025934;28;20045;-81
2023/03/08 00:43:34;;;;;;;7.73;3.50;;;;;;;-1.50;100.00;99021.28;5042890;28;20040;-82
2023/03/08 00:46:03;;;;;;;7.73;3.43;;;;;;;-1.53;100.00;99013.50;5059460;28;20036;-82
2023/03/08 00:48:30;;;;;;;7.67;3.50;;;;;;;-1.44;100.00;99023.00;5058046;28;20094;-81
2023/03/08 00:50:57;;;;;;;5.83;3.30;;;;;;;-1.50;100.00;99023.00;5070957;28;20036;-83
2023/03/08 00:53:24;;;;;;;6.37;3.20;;;;;;;-1.52;100.00;99022.13;5059408;28;20037;-81
2023/03/08 00:55:53;;;;;;;7.80;3.73;;;;;;;-1.42;100.00;99023.88;5017627;28;20045;-82
2023/03/08 00:58:20;;;;;;;5.00;3.03;;;;;;;-1.44;100.00;99026.44;5026964;28;20044;-83
2023/03/08 01:00:49;;;;;;;6.57;3.23;;;;;;;-1.54;100.00;99032.50;5039316;28;20044;-84
2023/03/08 01:03:17;;;;;;;5.60;3.17;;;;;;;-1.51;100.00;99026.47;5057763;28;20045;-83
2023/03/08 01:05:46;;;;;;;7.73;3.60;;;;;;;-1.54;100.00;99035.06;5035363;28;20043;-83
2023/03/08 01:08:16;;;;;;;6.50;3.50;;;;;;;-1.50;100.00;99038.56;5028354;28;20044;-83
2023/03/08 01:10:48;;;;;;;6.33;3.00;;;;;;;-1.40;100.00;99042.03;5040646;28;20078;-83
2023/03/08 01:13:16;;;;;;;6.97;3.20;;;;;;;-1.36;100.00;99039.41;5032704;28;20056;-82
2023/03/08 01:15:43;;;;;;;6.03;2.90;;;;;;;-1.48;100.00;99047.19;5041869;28;20036;-83
2023/03/08 01:18:09;;;;;;;7.23;3.53;;;;;;;-1.53;100.00;99041.97;5058550;28;20413;-83
2023/03/08 01:20:36;;;;;;;5.37;3.00;;;;;;;-1.56;100.00;99038.53;5026163;28;20048;-82
2023/03/08 01:23:03;;;;;;;7.77;3.03;;;;;;;-1.51;100.00;99044.59;5059245;28;20059;-83
2023/03/08 01:25:30;;;;;;;6.53;3.00;;;;;;;-1.48;100.00;99044.59;5043626;28;20051;-83
2023/03/08 01:27:57;;;;;;;5.67;3.60;;;;;;;-1.51;100.00;99052.38;5022231;28;20037;-83
2023/03/08 01:30:23;;;;;;;5.73;2.93;;;;;;;-1.49;100.00;99048.06;5049342;28;20497;-84
2023/03/08 01:32:50;;;;;;;5.20;3.10;;;;;;;-1.44;100.00;99048.91;5029631;23;1127626;-81
2023/03/08 01:35:17;;;;;;;5.10;2.80;;;;;;;-1.49;100.00;99050.63;5021641;28;20040;-80
2023/03/08 01:37:43;;;;;;;11.97;3.10;;;;;;;-1.53;100.00;99046.31;5047249;28;20045;-80
2023/03/08 01:40:14;;;;;;;5.00;2.73;;;;;;;-1.49;100.00;99046.31;5015657;28;20055;-81
2023/03/08 01:42:41;;;;;;;5.40;3.20;;;;;;;-1.41;100.00;99051.53;5016001;28;20041;-80
2023/03/08 01:45:45;;;;;;;4.37;2.63;;;;;;;-1.50;100.00;99052.38;5033864;28;20409;-80
2023/03/08 01:48:14;;;;;;;3.83;2.73;;;;;;;-1.45;100.00;99053.22;5016957;28;20439;-80
2023/03/08 01:50:42;;;;;;;4.53;2.53;;;;;;;-1.58;100.00;99048.03;5032275;28;20493;-81
2023/03/08 01:53:08;;;;;;;6.77;2.97;;;;;;;-1.54;100.00;99054.94;5000185;28;20045;-81
2023/03/08 01:55:35;;;;;;;6.07;2.90;;;;;;;-1.47;100.00;99054.94;5013650;28;20074;-81
2023/03/08 01:58:02;;;;;;;5.90;3.30;;;;;;;-1.49;100.00;99056.69;5019295;28;20038;-81
2023/03/08 02:00:28;;;;;;;7.77;2.97;;;;;;;-1.59;100.00;99060.13;5032570;28;20095;-81
2023/03/08 02:03:04;;;;;;;5.53;2.77;;;;;;;-1.58;100.00;99064.44;5060215;28;20086;-80
2023/03/08 02:05:30;;;;;;;6.73;3.43;;;;;;;-1.55;100.00;99068.75;5016687;28;20086;-80
2023/03/08 02:07:57;;;;;;;4.57;2.60;;;;;;;-1.58;100.00;99069.59;5048283;28;20060;-80
2023/03/08 02:10:24;;;;;;;6.93;3.20;;;;;;;-1.53;100.00;99065.28;5012301;28;20128;-80
2023/03/08 02:12:51;;;;;;;4.07;2.67;;;;;;;-1.56;100.00;99062.69;5015701;28;20499;-81
2023/03/08 02:15:19;;;;;;;8.33;3.90;;;;;;;-1.63;100.00;99068.72;5017573;28;20099;-79
2023/03/08 02:17:46;;;;;;;5.63;3.40;;;;;;;-1.55;100.00;99064.44;5034513;28;20589;-79
2023/03/08 02:20:31;;;;;;;6.57;3.13;;;;;;;-1.51;100.00;99068.78;5026926;28;20053;-79
2023/03/08 02:23:10;;;;;;;6.27;3.53;;;;;;;-1.51;100.00;99054.97;5034810;28;20086;-79
2023/03/08 02:25:37;;;;;;;10.27;3.80;;;;;;;-1.49;100.00;99063.59;5050954;28;20422;-79
2023/03/08 02:28:04;;;;;;;8.77;3.80;;;;;;;-1.49;100.00;99064.44;5018416;28;20045;-79
2023/03/08 02:30:34;;;;;;;7.97;3.47;;;;;;;-1.47;100.00;99069.63;5018294;28;20044;-79
2023/03/08 02:33:01;;;;;;;8.53;4.00;;;;;;;-1.39;100.00;99077.41;5016774;28;20043;-80
2023/03/08 02:35:29;;;;;;;8.93;4.23;;;;;;;-1.33;100.00;99067.06;5017343;28;20041;-80
2023/03/08 02:37:55;;;;;;;8.23;4.17;;;;;;;-1.34;100.00;99079.16;5012805;28;20042;-80
2023/03/08 02:40:22;;;;;;;8.43;4.37;;;;;;;-1.24;100.00;99077.44;5013484;28;20532;-80
2023/03/08 02:42:48;;;;;;;11.13;5.87;;;;;;;-1.21;100.00;99078.31;5015803;28;20053;-80
2023/03/08 02:45:18;;;;;;;10.50;4.27;;;;;;;-1.25;100.00;99075.72;5017528;28;20041;-79
2023/03/08 02:47:45;;;;;;;10.07;5.03;;;;;;;-1.16;100.00;99081.78;5032519;28;20039;-80
2023/03/08 02:50:11;;;;;;;9.53;5.43;;;;;;;-1.25;100.00;99076.59;5016216;28;20071;-80
2023/03/08 02:52:38;;;;;;;15.63;6.60;;;;;;;-1.14;100.00;99077.47;5015288;28;20052;-80
2023/03/08 02:55:05;;;;;;;11.63;4.83;;;;;;;-1.07;100.00;99085.25;5027941;28;20041;-79
2023/03/08 02:57:32;;;;;;;9.60;5.13;;;;;;;-1.04;100.00;99087.81;5030878;28;20033;-79
2023/03/08 02:59:59;;;;;;;10.87;5.53;;;;;;;-1.05;100.00;99086.09;5032618;28;20052;-79
2023/03/08 03:02:25;;;;;;;10.43;4.93;;;;;;;-1.10;100.00;99083.50;5028664;28;20063;-80
2023/03/08 03:04:52;;;;;;;11.27;5.23;;;;;;;-1.07;100.00;99087.84;5016449;28;20079;-80
2023/03/08 03:07:19;;;;;;;10.53;6.27;;;;;;;-1.14;100.00;99086.97;5009125;28;20048;-79
2023/03/08 03:09:45;;;;;;;9.87;5.73;;;;;;;-1.02;100.00;99086.09;5014369;28;20033;-80
2023/03/08 03:12:12;;;;;;;11.20;5.67;;;;;;;-1.11;100.00;99086.09;5018851;28;20036;-80
2023/03/08 03:14:39;;;;;;;10.43;5.60;;;;;;;-1.05;100.00;99083.50;5008072;28;20098;-80
2023/03/08 03:17:05;;;;;;;11.37;6.70;;;;;;;-0.97;100.00;99084.38;5023025;28;20044;-79
2023/03/08 03:19:32;;;;;;;17.03;6.77;;;;;;;-0.98;100.00;99095.63;5034675;28;20044;-79
2023/03/08 03:21:59;;;;;;;10.47;5.87;;;;;;;-1.08;100.00;99091.28;5034751;28;20045;-79
2023/03/08 03:24:25;;;;;;;9.87;6.77;;;;;;;-0.98;100.00;99098.22;5025233;28;20040;-79
2023/03/08 03:26:52;;;;;;;12.23;6.73;;;;;;;-0.90;100.00;99086.13;5015525;28;20489;-80
2023/03/08 03:29:19;;;;;;;11.40;6.53;;;;;;;-0.94;100.00;99099.94;5015781;28;20049;-80
2023/03/08 03:31:47;;;;;;;10.23;6.53;;;;;;;-0.94;100.00;99098.19;5031979;28;20493;-80
2023/03/08 03:34:14;;;;;;;14.73;6.93;;;;;;;-0.91;100.00;99093.03;5021865;28;20690;-79
2023/03/08 03:36:40;;;;;;;15.17;6.90;;;;;;;-0.89;100.00;99099.06;5024335;28;20037;-80
2023/03/08 03:39:07;;;;;;;13.27;6.43;;;;;;;-0.98;100.00;99103.41;5031670;28;20119;-80
2023/03/08 03:41:34;;;;;;;10.17;6.33;;;;;;;-0.90;100.00;99109.44;5019214;28;20037;-79
2023/03/08 03:44:00;;;;;;;11.43;6.10;;;;;;;-0.83;100.00;99118.97;5019611;28;20103;-80
2023/03/08 03:46:27;;;;;;;10.40;6.57;;;;;;;-0.76;100.00;99110.28;5016660;28;20033;-79
2023/03/08 03:48:54;;;;;;;11.73;6.70;;;;;;;-0.78;100.00;99119.81;5031697;28;20045;-80
2023/03/08 03:51:21;;;;;;;10.97;6.00;;;;;;;-0.79;100.00;99122.41;5048684;28;20090;-80
2023/03/08 03:53:48;;;;;;;16.03;7.23;;;;;;;-0.86;100.00;99124.13;5001578;28;20052;-81
2023/03/08 03:56:20;;;;;;;14.23;6.53;;;;;;;-0.87;100.00;99122.41;5018791;28;20041;-79
2023/03/08 03:58:48;;;;;;;11.43;6.63;;;;;;;-0.82;100.00;99125.88;5036168;28;20482;-79
2023/03/08 04:01:21;;;;;;;9.07;5.70;;;;;;;-0.82;100.00;99128.47;5002387;28;20087;-79
2023/03/08 04:03:48;;;;;;;11.77;6.80;;;;;;;-0.71;100.00;99125.88;5032405;28;20091;-80
2023/03/08 04:06:20;;;;;;;14.20;6.40;;;;;;;-0.75;100.00;99140.56;4999268;28;20092;-79
2023/03/08 04:08:48;;;;;;;9.73;5.53;;;;;;;-0.79;100.00;99138.81;4998994;28;20045;-80
2023/03/08 04:11:17;;;;;;;9.17;5.90;;;;;;;-0.75;100.00;99142.31;5015472;28;20088;-79
2023/03/08 04:13:44;;;;;;;11.63;6.00;;;;;;;-0.82;100.00;99144.03;5021921;28;20072;-79
2023/03/08 04:16:16;;;;;;;10.50;6.07;;;;;;;-0.78;100.00;99142.28;5033913;28;20040;-79
2023/03/08 04:18:43;;;;;;;8.77;5.70;;;;;;;-0.76;100.00;99138.81;5002341;28;20140;-79
2023/03/08 04:21:10;;;;;;;9.10;5.60;;;;;;;-0.74;100.00;99138.84;5018449;28;20045;-79
2023/03/08 04:23:37;;;;;;;11.70;6.47;;;;;;;-0.81;100.00;99150.94;5035129;28;20041;-79
2023/03/08 04:26:04;;;;;;;10.60;5.53;;;;;;;-0.70;100.00;99144.00;5034782;28;20049;-79
2023/03/08 04:28:32;;;;;;;11.03;5.93;;;;;;;-0.69;100.00;99137.97;5051728;28;20048;-80
2023/03/08 04:31:00;;;;;;;9.87;5.37;;;;;;;-0.76;100.00;99149.19;5030182;28;20588;-80
2023/03/08 04:33:26;;;;;;;9.77;5.43;;;;;;;-0.75;100.00;99147.50;5029959;28;20474;-79
2023/03/08 04:35:53;;;;;;;10.30;5.30;;;;;;;-0.75;100.00;99150.09;5028812;28;20052;-80
2023/03/08 04:38:20;;;;;;;10.60;5.60;;;;;;;-0.72;100.00;99143.16;5044683;28;20068;-80
2023/03/08 04:41:01;;;;;;;11.30;4.90;;;;;;;-0.74;100.00;99149.22;5019877;28;20044;-80
2023/03/08 04:43:28;;;;;;;10.17;5.67;;;;;;;-0.73;100.00;99149.22;5014243;28;20041;-80
2023/03/08 04:45:54;;;;;;;8.67;5.13;;;;;;;-0.57;100.00;99153.53;5024735;28;20055;-80
2023/03/08 04:48:21;;;;;;;9.70;5.30;;;;;;;-0.56;100.00;99157.00;5017802;28;20029;-80
2023/03/08 04:50:59;;;;;;;10.50;5.43;;;;;;;-0.63;100.00;99153.53;5030336;28;20082;-80
2023/03/08 04:53:25;;;;;;;;;;;;;;;-0.70;100.00;99148.34;5037840;28;20045;-79
2023/03/08 04:55:52;;;;;;;7.33;4.80;;;;;;;-0.60;100.00;99150.94;5044879;28;19928;-79
2023/03/08 04:58:20;;;;;;;11.53;5.40;;;;;;;-0.61;100.00;99144.00;5001482;28;20040;-80
2023/03/08 05:00:47;;;;;;;7.97;5.00;;;;;;;-0.60;100.00;99148.34;5034210;28;20041;-79
2023/03/08 05:03:14;;;;;;;8.87;5.47;;;;;;;-0.67;100.00;99141.44;5051388;28;20033;-80
2023/03/08 05:05:45;;;;;;;10.10;5.50;;;;;;;-0.61;100.00;99150.94;5033833;28;20037;-80
2023/03/08 05:08:13;;;;;;;9.77;5.20;;;;;;;-0.73;100.00;99146.63;5034133;28;20041;-79
2023/03/08 05:10:45;;;;;;;10.23;5.67;;;;;;;-0.63;100.00;99156.13;5034294;28;20041;-80
2023/03/08 05:13:12;;;;;;;18.77;6.00;;;;;;;-0.59;100.00;99160.47;5034102;28;20095;-79
2023/03/08 05:15:38;;;;;;;9.70;4.93;;;;;;;-0.65;100.00;99154.41;5033020;28;20041;-79
2023/03/08 05:18:05;;;;;;;8.00;5.30;;;;;;;-0.73;100.00;99154.41;5017107;28;20037;-79
2023/03/08 05:20:31;;;;;;;10.13;5.17;;;;;;;-0.61;100.00;99161.31;5017880;28;20040;-80
2023/03/08 05:22:58;;;;;;;8.33;4.87;;;;;;;-0.59;100.00;99152.69;5033839;28;20048;-79
2023/03/08 05:25:25;;;;;;;8.10;4.90;;;;;;;-0.62;100.00;99152.66;5014335;28;20574;-79
2023/03/08 05:27:52;;;;;;;9.07;4.67;;;;;;;-0.70;100.00;99149.22;5015730;28;20124;-79
2023/03/08 05:30:19;;;;;;;6.90;4.53;;;;;;;-0.60;100.00;99152.66;4999862;28;20037;-79
2023/03/08 05:32:46;;;;;;;9.03;4.73;;;;;;;-0.70;100.00;99151.78;5014557;28;20072;-79
2023/03/08 05:35:13;;;;;;;8.87;5.00;;;;;;;-0.61;100.00;99151.78;5014741;28;20486;-79
2023/03/08 05:37:39;;;;;;;7.53;4.20;;;;;;;-0.73;100.00;99143.16;5030521;28;20049;-79
2023/03/08 05:40:07;;;;;;;5.43;3.97;;;;;;;-0.67;100.00;99144.03;5015952;28;20486;-78
2023/03/08 05:42:33;;;;;;;7.67;4.47;;;;;;;-0.75;100.00;99150.94;5033529;28;20528;-80
2023/03/08 05:45:00;;;;;;;8.10;3.60;;;;;;;-0.67;100.00;99148.38;5015719;28;20071;-79
2023/03/08 05:47:29;;;;;;;7.90;3.93;;;;;;;-0.64;100.00;99151.81;5031836;28;20037;-79
2023/03/08 05:49:56;;;;;;;7.83;4.73;;;;;;;-0.51;100.00;99154.38;5000793;28;20049;-79
2023/03/08 05:52:22;;;;;;;7.07;3.90;;;;;;;-0.53;100.00;99161.31;5025798;28;20072;-79
2023/03/08 05:54:49;;;;;;;6.77;4.20;;;;;;;-0.57;100.00;99166.50;5018843;28;20041;-79
2023/03/08 05:57:16;;;;;;;6.33;4.20;;;;;;;-0.60;100.00;99166.50;5048054;28;20067;-79
2023/03/08 05:59:43;;;;;;;7.63;4.17;;;;;;;-0.68;100.00;99163.03;5038309;28;20494;-79
2023/03/08 06:02:09;;;;;;;7.87;4.30;;;;;;;-0.70;100.00;99176.88;5029233;28;20067;-79
2023/03/08 06:04:36;;;;;;;7.37;4.70;;;;;;;-0.66;100.00;99170.84;5049509;28;20059;-80
2023/03/08 06:07:03;;;;;;;9.17;4.10;;;;;;;-0.64;100.00;99172.56;5016415;28;20063;-79
2023/03/08 06:09:30;;;;;;;8.27;3.80;;;;;;;-0.63;100.00;99169.09;5024585;28;20048;-79
2023/03/08 06:11:56;;;;;;;7.83;4.00;;;;;;;-0.60;100.00;99174.28;5016779;28;20045;-80
2023/03/08 06:14:23;;;;;;;6.90;4.17;;;;;;;-0.49;100.00;99173.44;5035486;28;20045;-79
2023/03/08 06:16:50;;;;;;;7.57;4.13;;;;;;;-0.49;100.00;99174.28;5012034;28;20038;-79
2023/03/08 06:19:17;;;;;;;5.97;3.73;;;;;;;-0.38;100.00;99176.88;4998383;28;20511;-80
2023/03/08 06:21:43;;;;;;;7.30;3.97;;;;;;;-0.38;100.00;99171.69;5050255;28;20120;-79
2023/03/08 06:24:10;;;;;;;6.83;4.13;;;;;;;-0.23;100.00;99179.47;5029727;28;20041;-79
2023/03/08 06:26:37;;;;;;;8.23;4.00;;;;;;;-0.35;100.00;99180.31;5013992;28;20045;-79
2023/03/08 06:29:03;;;;;;;7.10;3.87;;;;;;;-0.24;100.00;99169.09;5028376;28;20063;-80
2023/03/08 06:31:30;;;;;;;6.53;3.97;;;;;;;-0.24;100.00;99177.75;5031073;28;21664;-80
2023/03/08 06:33:57;;;;;;;7.07;3.50;;;;;;;-0.24;100.00;99169.97;5016163;28;20048;-80
2023/03/08 06:36:23;;;;;;;5.30;3.57;;;;;;;-0.32;100.00;99175.16;5032761;28;20033;-79
2023/03/08 06:38:50;;;;;;;7.63;3.07;;;;;;;-0.38;100.00;99182.06;5031213;28;20104;-79
2023/03/08 06:41:18;;;;;;;6.43;2.97;;;;;;;-0.23;100.00;99183.81;5016999;28;20045;-80
2023/03/08 06:43:45;;;;;;;9.73;3.93;;;;;;;-0.21;100.00;99176.88;5033453;28;20614;-79
2023/03/08 06:46:15;;;;;;;8.93;3.73;;;;;;;-0.18;100.00;99179.44;5033379;28;20482;-80
2023/03/08 06:48:46;;;;;;;6.80;3.57;;;;;;;-0.13;100.00;99181.19;5032620;28;20037;-80
2023/03/08 06:51:13;;;;;;;6.00;3.43;;;;;;;-0.10;100.00;99181.16;5034049;28;20063;-79
2023/03/08 06:53:40;;;;;;;5.50;3.60;;;;;;;-0.12;100.00;99184.66;5040860;28;20090;-79
2023/03/08 06:56:17;;;;;;;7.33;3.67;;;;;;;-0.07;100.00;99191.56;5033391;28;20051;-81
2023/03/08 06:58:50;;;;;;;5.20;3.30;;;;;;;0.08;100.00;99189.78;5033247;28;20041;-80
2023/03/08 07:01:17;;;;;;;7.47;3.47;;;;;;;0.15;100.00;99187.19;5015242;28;20049;-79
2023/03/08 07:03:46;;;;;;;6.33;3.50;;;;;;;0.31;100.00;99202.75;5016746;28;20076;-80
2023/03/08 07:06:13;;;;;;;5.83;3.40;;;;;;;0.40;100.00;99192.31;5022443;28;20538;-79
2023/03/08 07:08:40;;;;;;;6.50;3.17;;;;;;;0.43;100.00;99184.53;5033223;28;20116;-80
2023/03/08 07:11:10;;;;;;;6.60;3.67;;;;;;;0.50;100.00;99183.63;5048497;28;20102;-79
2023/03/08 07:13:37;;;;;;;6.03;3.03;;;;;;;0.53;100.00;99187.09;5045999;28;20108;-80
2023/03/08 07:16:08;;;;;;;6.93;3.93;;;;;;;0.54;100.00;99186.22;5041155;28;20032;-80
2023/03/08 07:18:35;;;;;;;5.83;3.80;;;;;;;0.51;100.00;99186.22;5055271;28;20041;-80
2023/03/08 07:21:03;;;;;;;4.80;3.40;;;;;;;0.53;100.00;99171.50;5027648;28;20048;-80
2023/03/08 07:23:30;;;;;;;8.13;4.07;;;;;;;0.59;100.00;99182.72;5040592;28;20047;-80
2023/03/08 07:25:56;;;;;;;6.33;3.57;;;;;;;0.70;100.00;99181.81;5050617;28;20490;-79
2023/03/08 07:28:23;;;;;;;5.20;3.57;;;;;;;0.66;100.00;99174.03;5020672;28;20047;-80
2023/03/08 07:30:51;;;;;;;8.40;4.37;;;;;;;0.68;100.00;99174.91;5020978;28;20159;-79
2023/03/08 07:36:06;;;;;;;7.63;3.30;;;;;;;0.79;100.00;99175.72;5049852;28;20045;-82
2023/03/08 07:38:33;;;;;;;5.57;3.03;;;;;;;0.79;100.00;99170.50;5027054;28;20033;-80
2023/03/08 07:41:00;;;;;;;7.40;3.60;;;;;;;0.72;100.00;99172.28;5020117;28;20460;-83
2023/03/08 07:43:26;;;;;;;4.97;3.20;;;;;;;0.84;100.00;99182.63;5020140;28;20056;-82
2023/03/08 07:45:53;;;;;;;4.80;3.10;;;;;;;0.94;100.00;99182.56;5020446;28;20041;-81
2023/03/08 07:48:19;;;;;;;6.10;4.03;;;;;;;0.86;100.00;99186.94;5021224;28;20041;-82
2023/03/08 07:50:46;;;;;;;4.90;2.90;;;;;;;0.94;100.00;99187.78;5020406;28;20040;-82
2023/03/08 07:53:13;;;;;;;3.90;2.80;;;;;;;0.93;100.00;99184.31;5038048;28;20041;-82
2023/03/08 07:55:39;;;;;;;5.93;3.37;;;;;;;0.96;100.00;99188.63;5023126;28;20036;-82
2023/03/08 07:58:06;;;;;;;4.77;2.97;;;;;;;0.93;100.00;99180.84;5024388;28;20037;-82
2023/03/08 08:00:32;;;;;;;5.27;2.97;;;;;;;0.99;100.00;99186.84;5027683;28;20045;-81
2023/03/08 08:02:59;;;;;;;6.63;3.63;;;;;;;1.06;100.00;99185.97;4997440;28;20177;-82
2023/03/08 08:05:26;;;;;;;6.93;4.30;;;;;;;1.08;100.00;99191.13;5016042;28;20120;-83
2023/03/08 08:07:53;;;;;;;6.53;3.73;;;;;;;1.05;100.00;99198.97;5032177;28;20479;-81
2023/03/08 08:10:19;;;;;;;5.63;3.30;;;;;;;1.10;100.00;99198.09;5000240;28;20487;-82
2023/03/08 08:12:46;;;;;;;9.30;2.93;;;;;;;1.24;100.00;99189.31;4999842;28;20645;-81
2023/03/08 08:15:13;;;;;;;4.90;3.13;;;;;;;1.25;100.00;99191.03;5022028;28;20640;-81
2023/03/08 08:17:39;;;;;;;6.50;2.97;;;;;;;1.33;100.00;99184.03;5048465;28;20091;-82
2023/03/08 08:20:07;;;;;;;5.97;3.27;;;;;;;1.44;100.00;99184.84;5035611;28;20391;-82
2023/03/08 08:22:35;;;;;;;5.13;3.00;;;;;;;1.54;98.30;99178.69;5003682;28;20144;-81
2023/03/08 08:25:06;;;;;;;4.17;2.50;;;;;;;1.41;98.60;99182.25;5021817;28;20053;-82
2023/03/08 08:27:33;;;;;;;3.70;2.80;;;;;;;1.48;100.00;99190.88;5026558;28;20449;-81
2023/03/08 08:30:00;;;;;;;4.80;3.03;;;;;;;1.37;95.87;99188.38;5039768;28;20096;-82
2023/03/08 08:32:27;;;;;;;5.57;3.30;;;;;;;1.34;99.53;99191.84;5022386;28;20033;-81
2023/03/08 08:34:54;;;;;;;4.10;2.70;;;;;;;1.32;100.00;99195.34;5039328;28;20066;-81
2023/03/08 08:37:20;;;;;;;4.63;2.57;;;;;;;1.25;96.68;99188.44;5023212;28;20091;-80
2023/03/08 08:39:47;;;;;;;4.73;2.80;;;;;;;1.49;98.45;99192.63;5021280;28;20045;-82
2023/03/08 08:42:13;;;;;;;4.50;3.07;;;;;;;1.71;98.08;99190.72;5021019;28;20065;-82
2023/03/08 08:44:40;;;;;;;5.13;2.50;;;;;;;1.91;96.09;99184.44;5040423;28;20366;-81
2023/03/08 08:47:07;;;;;;;4.57;2.67;;;;;;;1.99;94.18;99179.16;5014397;28;20042;-81
2023/03/08 08:49:34;;;;;;;3.43;2.63;;;;;;;2.00;95.46;99188.69;5039511;28;20041;-81
2023/03/08 08:52:01;;;;;;;3.23;2.13;;;;;;;2.06;94.04;99191.25;5012383;28;20041;-81
2023/03/08 08:54:27;;;;;;;4.27;2.50;;;;;;;2.17;91.99;99186.78;5017750;28;20406;-80
2023/03/08 08:56:54;;;;;;;4.03;2.30;;;;;;;2.26;93.15;99175.41;5017813;28;20076;-80
2023/03/08 08:59:21;;;;;;;3.87;2.83;;;;;;;2.25;90.70;99164.13;5004753;28;20502;-81
2023/03/08 09:01:47;;;;;;;4.57;2.63;;;;;;;2.24;88.27;99156.31;5004987;28;20096;-80
2023/03/08 09:04:15;;;;;;;4.40;2.40;;;;;;;2.38;90.43;99166.59;5000429;28;20100;-81
2023/03/08 09:06:42;;;;;;;3.30;2.10;;;;;;;2.43;90.13;99162.19;5000254;28;20049;-80
2023/03/08 09:09:09;;;;;;;5.47;2.30;;;;;;;2.43;89.92;99173.47;4999739;28;20038;-80
2023/03/08 09:11:36;;;;;;;4.60;2.63;;;;;;;2.42;86.34;99169.16;5050371;28;20469;-81
2023/03/08 09:14:17;;;;;;;3.73;2.30;;;;;;;2.36;87.60;99176.19;5009914;28;20664;-80
2023/03/08 09:16:44;;;;;;;3.57;2.30;;;;;;;2.24;87.13;99172.81;5020706;28;20033;-80
2023/03/08 09:19:11;;;;;;;3.10;2.20;;;;;;;2.26;88.18;99168.44;5004425;28;20041;-79
2023/03/08 09:21:37;;;;;;;4.63;3.17;;;;;;;2.13;86.73;99166.88;5018356;28;20040;-82
2023/03/08 09:24:05;;;;;;;4.80;2.53;;;;;;;1.89;87.01;99165.38;5036435;28;20044;-82
2023/03/08 09:26:32;;;;;;;4.67;2.90;;;;;;;2.06;87.77;99177.38;5018278;28;20418;-81
2023/03/08 09:29:03;;;;;;;3.60;2.33;;;;;;;2.02;87.45;99178.25;5028107;28;20080;-81
2023/03/08 09:31:31;;;;;;;4.17;2.43;;;;;;;2.07;85.95;99182.56;5032263;28;20063;-80
2023/03/08 09:33:58;;;;;;;5.20;2.60;;;;;;;1.94;86.21;99175.75;5038878;28;20049;-79
2023/03/08 09:36:27;;;;;;;5.00;2.93;;;;;;;2.04;87.62;99173.91;5017551;28;20092;-80
2023/03/08 09:38:54;;;;;;;5.80;2.50;;;;;;;2.10;88.22;99173.84;5000873;28;20041;-78
2023/03/08 09:41:32;;;;;;;4.87;2.87;;;;;;;2.20;88.20;99176.34;5016929;28;20045;-79
2023/03/08 09:44:12;;;;;;;6.40;3.27;;;;;;;2.28;88.34;99170.22;5013844;28;20041;-79
2023/03/08 09:46:54;;;;;;;5.27;3.20;;;;;;;2.29;88.44;99164.97;5012862;28;20045;-81
2023/03/08 09:49:26;;;;;;;5.33;2.87;;;;;;;2.38;90.11;99159.66;5023178;28;20056;-82
2023/03/08 09:52:20;;;;;;;4.87;2.87;;;;;;;2.37;89.46;99152.72;5019597;28;20087;-80
2023/03/08 09:54:49;;;;;;;6.93;4.78;;;;;;;2.21;82.20;99165.06;5023031;28;20052;-80
2023/03/08 09:57:22;;;;;;;8.57;5.63;;;;;;;2.25;85.43;99155.44;5014404;28;20041;-80
2023/03/08 09:59:53;;;;;;;4.87;4.10;;;;;;;2.52;83.68;99154.25;5016023;28;20068;-81
2023/03/08 10:02:30;;;;;;;5.37;2.67;;;;;;;2.49;80.18;99144.75;4997405;28;20034;-80
2023/03/08 10:04:59;;;;;;;6.23;4.50;;;;;;;2.69;82.76;99141.00;5039095;28;20092;-81
2023/03/08 10:08:18;;;;;;;7.22;4.05;;;;;;;2.84;81.61;99148.63;5013542;28;20422;-79
2023/03/08 10:11:12;;;;;;;6.57;5.53;;;;;;;2.75;82.58;99146.16;5046342;28;20567;-81
2023/03/08 10:13:40;;;;;;;5.33;3.03;;;;;;;2.79;82.96;99138.28;5036018;28;20041;-81
2023/03/08 10:16:24;;;;;;;5.10;3.23;;;;;;;2.87;84.99;99138.19;5031358;28;20982;-79
2023/03/08 10:19:06;;;;;;;6.47;2.87;;;;;;;2.97;83.90;99131.09;5013436;28;20039;-81
2023/03/08 10:21:36;;;;;;;4.47;2.70;;;;;;;3.15;82.27;99135.16;4997029;28;20056;-81
2023/03/08 10:24:05;;;;;;;4.00;2.70;;;;;;;3.14;83.37;99133.44;4997680;28;20048;-81
2023/03/08 10:26:32;;;;;;;4.50;2.70;;;;;;;3.16;84.89;99140.34;5013386;28;20403;-80
2023/03/08 10:28:59;;;;;;;4.97;3.27;;;;;;;3.11;85.88;99131.72;5031455;28;20029;-81
2023/03/08 10:31:32;;;;;;;5.20;3.90;;;;;;;3.20;82.71;99131.63;5006080;28;20068;-80
2023/03/08 10:34:05;;;;;;;4.83;3.13;;;;;;;3.24;80.80;99138.50;5013048;28;20033;-79
2023/03/08 10:36:31;;;;;;;5.03;3.03;;;;;;;2.95;80.58;99132.88;5045462;28;20449;-81
2023/03/08 10:39:10;;;;;;;6.20;2.90;;;;;;;2.87;79.73;99137.31;5035055;28;20044;-80
2023/03/08 10:41:46;;;;;;;6.30;2.80;;;;;;;2.62;79.72;99140.25;5029483;28;20045;-80
2023/03/08 10:44:39;;;;;;;5.87;3.73;;;;;;;2.63;81.42;99152.41;4986846;28;20056;-80
2023/03/08 10:47:27;;;;;;;3.83;2.47;;;;;;;2.39;80.45;99137.91;5004677;28;20041;-81
2023/03/08 10:50:09;;;;;;;5.20;2.40;;;;;;;2.54;83.87;99139.47;5056729;28;20449;-80
2023/03/08 10:52:35;;;;;;;3.53;2.57;;;;;;;2.53;83.25;99129.94;5009373;28;20511;-80
2023/03/08 10:55:16;;;;;;;3.17;2.43;;;;;;;2.65;82.26;99129.78;5030209;28;20044;-81
2023/03/08 10:57:54;;;;;;;5.63;4.33;;;;;;;2.81;82.17;99135.66;5014764;28;20072;-79
2023/03/08 11:00:30;;;;;;;4.40;3.23;;;;;;;2.95;78.57;99125.91;5000449;28;20099;-78
2023/03/08 11:03:23;;;;;;;3.63;2.17;;;;;;;3.00;77.70;99117.97;5028515;28;20041;-79
2023/03/08 11:06:14;;;;;;;3.27;2.30;;;;;;;2.98;78.82;99112.78;4977398;28;20503;-82
2023/03/08 11:08:52;;;;;;;3.13;2.07;;;;;;;3.07;77.16;99110.03;5006723;28;20096;-80
2023/03/08 11:11:19;;;;;;;5.77;2.40;;;;;;;3.12;78.68;99107.38;5016076;28;20065;-81
2023/03/08 11:13:47;;;;;;;3.67;2.20;;;;;;;3.07;81.25;99106.56;5015702;28;20046;-80
2023/03/08 11:16:37;;;;;;;5.80;2.60;;;;;;;3.05;76.36;99103.13;5015604;28;20053;-80
2023/03/08 11:19:19;;;;;;;3.47;2.10;;;;;;;3.07;79.87;99099.63;5032615;28;20042;-80
2023/03/08 11:22:02;;;;;;;4.03;2.23;;;;;;;2.90;77.09;99091.19;5035273;28;20486;-81
2023/03/08 11:24:39;;;;;;;5.05;2.90;;;;;;;2.88;79.71;99089.47;5018505;28;20041;-80
2023/03/08 11:27:33;;;;;;;5.30;2.90;;;;;;;3.05;79.36;99077.91;5034152;28;20041;-81
2023/03/08 11:30:04;;;;;;;3.42;2.30;;;;;;;3.25;77.42;99082.81;5037428;28;20113;-81
2023/03/08 11:32:49;;;;;;;4.20;2.10;;;;;;;3.27;77.73;99074.94;5015338;28;20061;-81
2023/03/08 11:35:41;;;;;;;3.27;2.33;;;;;;;3.33;74.81;99073.09;5044023;28;20060;-81
2023/03/08 11:38:21;;;;;;;4.63;2.60;;;;;;;3.38;75.86;99059.97;5021671;28;20034;-80
2023/03/08 11:40:51;;;;;;;3.70;2.43;;;;;;;3.43;79.67;99068.56;5026413;28;20391;-81
2023/03/08 11:43:36;;;;;;;4.20;2.27;;;;;;;3.60;77.00;99050.00;5031988;28;20040;-82